Nysted, Nebraska
Current Conditions -  °F | °C
As of 6:19 AM on Thursday 18 Dec 2014 (Local Time) from KGRI Reporting Station
Light Snow Light Snow  
Wind Chill: 23°   Ceiling: 4800
Heat Index: 23°   Visibility: 4mi
Dew Point: 21°   Wind: 3mph
Humidity: 92%   Direction: 120°ESE
Pressure: 30.17"   Gusts: NA
Location:  41.1605°N, 98.5709°W
Report Text: KGRI 181219Z AUTO 12003KT 4SM -SN BR SCT029 OVC048 M05/M06 A3017 RMK AO2 P0000 T10501061
Loading
Personal Weather Stations






























Interactive Weather Map New forecast layout! Learn more

10-Day Weather Forecast

Advertisements
Track Severe Weather on mobile